Time;durP1;ratioP1;P1;durP2;ratioP2;P2;SDS_P1;SDS_P2;PMS_P1;PMS_P2;Temp;Humidity;BMP_temperature;BMP_pressure;BME280_temperature;BME280_humidity;BME280_pressure;Samples;Min_cycle;Max_cycle;Signal;HPM_P1;HPM_P2
2021/01/01 00:00:14;;;;;;;272.53;119.20;;;;;;;;;;4423963;32;20209;-85
2021/01/01 00:02:39;;;;;;;281.33;122.27;;;;;;;;;;4423698;32;20303;-84
2021/01/01 00:05:08;;;;;;;291.33;130.20;;;;;;;;;;4423687;32;20168;-85
2021/01/01 00:07:34;;;;;;;299.57;132.77;;;;;;;;;;4411214;32;20165;-84
2021/01/01 00:10:00;;;;;;;328.13;141.07;;;;;;;;;;4423882;32;20184;-84
2021/01/01 00:12:28;;;;;;;342.43;147.37;;;;;;;;;;4423461;32;20507;-85
2021/01/01 00:14:53;;;;;;;406.93;171.50;;;;;;;;;;4423533;32;20173;-84
2021/01/01 00:17:21;;;;;;;422.67;187.47;;;;;;;;;;4424120;32;20184;-85
2021/01/01 00:19:47;;;;;;;398.37;177.70;;;;;;;;;;4423272;32;20567;-84
2021/01/01 00:22:12;;;;;;;456.80;223.77;;;;;;;;;;4423549;32;20169;-84
2021/01/01 00:24:39;;;;;;;458.47;224.50;;;;;;;;;;4422985;32;20184;-84
2021/01/01 00:27:05;;;;;;;479.67;229.97;;;;;;;;;;4424224;32;20169;-84
2021/01/01 00:29:33;;;;;;;481.93;231.10;;;;;;;;;;4423987;32;20219;-84
2021/01/01 00:31:58;;;;;;;496.40;237.57;;;;;;;;;;4437263;32;20138;-84
2021/01/01 00:34:26;;;;;;;520.37;255.20;;;;;;;;;;4423385;32;20556;-84
2021/01/01 00:36:51;;;;;;;534.70;264.70;;;;;;;;;;4423545;32;20168;-84
2021/01/01 00:39:16;;;;;;;529.00;272.40;;;;;;;;;;4423973;32;20640;-83
2021/01/01 00:41:44;;;;;;;609.13;314.17;;;;;;;;;;4421223;32;20193;-84
2021/01/01 00:44:11;;;;;;;699.77;378.23;;;;;;;;;;4437366;32;20483;-83
2021/01/01 00:46:36;;;;;;;687.57;370.80;;;;;;;;;;4437148;32;20191;-83
2021/01/01 00:49:01;;;;;;;743.77;386.97;;;;;;;;;;4423493;32;20161;-83
2021/01/01 00:51:31;;;;;;;699.27;376.33;;;;;;;;;;4423222;32;20166;-83
2021/01/01 00:53:59;;;;;;;784.70;403.03;;;;;;;;;;4423054;32;20655;-83
2021/01/01 00:56:25;;;;;;;682.27;360.43;;;;;;;;;;4423286;32;20613;-83
2021/01/01 00:59:00;;;;;;;665.50;349.13;;;;;;;;;;4437063;32;20165;-83
2021/01/01 01:01:29;;;;;;;661.40;344.80;;;;;;;;;;4423320;32;20574;-81
2021/01/01 01:04:05;;;;;;;658.30;338.60;;;;;;;;;;4437110;32;20610;-82
2021/01/01 01:06:31;;;;;;;610.93;328.83;;;;;;;;;;4422927;32;20219;-82
2021/01/01 01:08:56;;;;;;;638.43;334.07;;;;;;;;;;4422801;32;20537;-83
2021/01/01 01:11:37;;;;;;;639.47;333.23;;;;;;;;;;4423320;32;20161;-83
2021/01/01 01:14:05;;;;;;;557.03;295.07;;;;;;;;;;4423163;32;20176;-82
2021/01/01 01:16:32;;;;;;;605.57;310.40;;;;;;;;;;4423245;32;20196;-83
2021/01/01 01:18:58;;;;;;;582.13;290.97;;;;;;;;;;4422602;32;20460;-83
2021/01/01 01:21:26;;;;;;;565.57;290.10;;;;;;;;;;4422495;32;20533;-83
2021/01/01 01:24:01;;;;;;;543.10;284.83;;;;;;;;;;4436830;32;20205;-83
2021/01/01 01:26:33;;;;;;;541.30;275.77;;;;;;;;;;4436692;32;20133;-83
2021/01/01 01:28:58;;;;;;;516.87;256.50;;;;;;;;;;4423324;32;20184;-83
2021/01/01 01:31:23;;;;;;;518.97;252.60;;;;;;;;;;4422733;32;20490;-83
2021/01/01 01:33:49;;;;;;;536.67;257.70;;;;;;;;;;4436869;32;20137;-83
2021/01/01 01:36:14;;;;;;;538.53;256.30;;;;;;;;;;4422214;32;20562;-83
2021/01/01 01:38:40;;;;;;;518.00;249.43;;;;;;;;;;4422553;32;20169;-83
2021/01/01 01:41:07;;;;;;;500.33;243.23;;;;;;;;;;4436401;32;20611;-83
2021/01/01 01:43:33;;;;;;;558.40;268.03;;;;;;;;;;4422370;32;20165;-83
2021/01/01 01:45:58;;;;;;;542.63;255.70;;;;;;;;;;4437045;32;20556;-83
2021/01/01 01:48:25;;;;;;;498.53;233.10;;;;;;;;;;4422085;32;20617;-83
2021/01/01 01:50:51;;;;;;;493.97;236.43;;;;;;;;;;4422723;32;20542;-83
2021/01/01 01:53:19;;;;;;;474.80;224.00;;;;;;;;;;4436753;32;20519;-82
2021/01/01 01:55:47;;;;;;;491.73;229.23;;;;;;;;;;4422788;32;20191;-82
2021/01/01 01:58:13;;;;;;;493.67;232.27;;;;;;;;;;4436138;32;20130;-83
2021/01/01 02:03:14;;;;;;;487.03;222.73;;;;;;;;;;4436513;32;20178;-82
2021/01/01 02:05:39;;;;;;;526.20;248.50;;;;;;;;;;4422078;32;20168;-83
2021/01/01 02:08:05;;;;;;;500.43;231.13;;;;;;;;;;4421952;32;20185;-83
2021/01/01 02:10:30;;;;;;;498.17;232.40;;;;;;;;;;4422122;32;20273;-83
2021/01/01 02:12:55;;;;;;;481.63;216.97;;;;;;;;;;4422023;32;20558;-83
2021/01/01 02:15:21;;;;;;;483.90;218.50;;;;;;;;;;4422389;32;20637;-83
2021/01/01 02:17:47;;;;;;;488.33;218.67;;;;;;;;;;4421918;32;20184;-83
2021/01/01 02:20:12;;;;;;;468.60;210.53;;;;;;;;;;4421866;32;20655;-83
2021/01/01 02:22:37;;;;;;;469.70;210.33;;;;;;;;;;4421766;32;20214;-83
2021/01/01 02:25:13;;;;;;;469.33;211.77;;;;;;;;;;4436628;32;20451;-83
2021/01/01 02:27:41;;;;;;;452.17;205.67;;;;;;;;;;4436658;32;20633;-83
2021/01/01 02:30:07;;;;;;;463.50;200.53;;;;;;;;;;4421753;32;20505;-82
2021/01/01 02:32:32;;;;;;;438.20;192.77;;;;;;;;;;4421633;32;20184;-83
2021/01/01 02:34:57;;;;;;;458.30;201.07;;;;;;;;;;4421579;32;20601;-83
2021/01/01 02:37:22;;;;;;;439.87;190.43;;;;;;;;;;4435911;32;20467;-83
2021/01/01 02:39:48;;;;;;;425.40;185.53;;;;;;;;;;4421542;32;20185;-82
2021/01/01 02:42:16;;;;;;;435.77;184.20;;;;;;;;;;4421668;32;20628;-83
2021/01/01 02:44:42;;;;;;;412.73;172.73;;;;;;;;;;4421699;32;20221;-82
2021/01/01 02:47:08;;;;;;;415.03;170.70;;;;;;;;;;4421269;32;20607;-83
2021/01/01 02:49:33;;;;;;;413.20;168.90;;;;;;;;;;4422765;32;20609;-83
2021/01/01 02:51:59;;;;;;;381.80;152.07;;;;;;;;;;4421514;32;20484;-83
2021/01/01 02:54:25;;;;;;;348.87;142.60;;;;;;;;;;4421497;32;20588;-83
2021/01/01 02:56:53;;;;;;;334.13;137.17;;;;;;;;;;4420891;32;20261;-83
2021/01/01 02:59:19;;;;;;;344.63;142.20;;;;;;;;;;4422061;32;20255;-83
2021/01/01 03:01:52;;;;;;;319.10;132.80;;;;;;;;;;4421525;32;20585;-83
2021/01/01 03:04:20;;;;;;;313.67;129.77;;;;;;;;;;4436485;32;20221;-83
2021/01/01 03:06:46;;;;;;;323.87;128.60;;;;;;;;;;4436249;32;20146;-83
2021/01/01 03:09:14;;;;;;;317.40;128.07;;;;;;;;;;4421419;32;20192;-83
2021/01/01 03:11:42;;;;;;;269.37;113.30;;;;;;;;;;4435634;32;20176;-83
2021/01/01 03:14:07;;;;;;;277.40;112.30;;;;;;;;;;4421601;32;20249;-83
2021/01/01 03:16:33;;;;;;;282.47;120.67;;;;;;;;;;4420622;32;20207;-83
2021/01/01 03:19:03;;;;;;;244.20;106.70;;;;;;;;;;4435708;32;20145;-83
2021/01/01 03:21:47;;;;;;;259.97;112.60;;;;;;;;;;4421721;32;20145;-83
2021/01/01 03:24:12;;;;;;;257.67;112.53;;;;;;;;;;4435265;32;20156;-82
2021/01/01 03:26:39;;;;;;;239.43;107.17;;;;;;;;;;4421371;32;20158;-83
2021/01/01 03:29:04;;;;;;;267.30;115.60;;;;;;;;;;4435339;32;20200;-83
2021/01/01 03:31:32;;;;;;;211.83;95.90;;;;;;;;;;4421109;32;20686;-82
2021/01/01 03:33:58;;;;;;;221.43;95.47;;;;;;;;;;4421213;32;20207;-83
2021/01/01 03:36:26;;;;;;;223.90;96.17;;;;;;;;;;4421798;32;20154;-83
2021/01/01 03:39:09;;;;;;;215.37;93.83;;;;;;;;;;4421266;32;20197;-83
2021/01/01 03:41:43;;;;;;;172.07;73.17;;;;;;;;;;4418672;32;20153;-83
2021/01/01 03:44:17;;;;;;;205.83;90.17;;;;;;;;;;4417514;32;20590;-83
2021/01/01 03:46:42;;;;;;;152.93;64.90;;;;;;;;;;4435814;32;20133;-83
2021/01/01 03:49:10;;;;;;;156.93;67.10;;;;;;;;;;4421143;32;20188;-83
2021/01/01 03:51:43;;;;;;;149.53;61.33;;;;;;;;;;4421038;32;20184;-83
2021/01/01 03:54:09;;;;;;;152.43;63.57;;;;;;;;;;4421191;32;20179;-83
2021/01/01 03:56:37;;;;;;;151.23;64.03;;;;;;;;;;4421233;32;20162;-83
2021/01/01 03:59:03;;;;;;;161.43;62.90;;;;;;;;;;4421723;32;20161;-83
2021/01/01 04:01:28;;;;;;;151.80;62.30;;;;;;;;;;4411400;32;20241;-83
2021/01/01 04:03:55;;;;;;;143.50;61.33;;;;;;;;;;4424425;32;20157;-83
2021/01/01 04:06:22;;;;;;;143.50;60.40;;;;;;;;;;4423848;32;20574;-83
2021/01/01 04:08:51;;;;;;;154.13;65.30;;;;;;;;;;4438153;32;20532;-83
2021/01/01 04:11:16;;;;;;;146.50;61.13;;;;;;;;;;4423754;32;20612;-83
2021/01/01 04:13:41;;;;;;;137.10;60.13;;;;;;;;;;4437948;32;20128;-83
2021/01/01 04:16:07;;;;;;;135.43;57.53;;;;;;;;;;4437863;32;20173;-83
2021/01/01 04:18:34;;;;;;;127.07;55.83;;;;;;;;;;4423718;32;20199;-83
2021/01/01 04:21:05;;;;;;;172.10;73.40;;;;;;;;;;4423677;32;20574;-82
2021/01/01 04:23:33;;;;;;;211.43;89.37;;;;;;;;;;4438317;32;20156;-83
2021/01/01 04:25:59;;;;;;;214.23;90.77;;;;;;;;;;4423491;32;20161;-83
2021/01/01 04:28:24;;;;;;;244.47;100.07;;;;;;;;;;4423979;32;20203;-83
2021/01/01 04:30:50;;;;;;;276.57;112.67;;;;;;;;;;4411306;32;20165;-83
2021/01/01 04:33:38;;;;;;;179.33;77.07;;;;;;;;;;4424124;32;20157;-83
2021/01/01 04:36:03;;;;;;;220.87;93.53;;;;;;;;;;4437457;32;20244;-83
2021/01/01 04:38:28;;;;;;;234.80;97.77;;;;;;;;;;4423185;32;20176;-83
2021/01/01 04:40:56;;;;;;;245.00;97.53;;;;;;;;;;4438067;32;20141;-82
2021/01/01 04:43:21;;;;;;;240.77;100.97;;;;;;;;;;4423356;32;20614;-83
2021/01/01 04:45:48;;;;;;;251.67;100.23;;;;;;;;;;4423720;32;20165;-82
2021/01/01 04:48:14;;;;;;;237.50;95.37;;;;;;;;;;4423210;32;20162;-83
2021/01/01 04:50:39;;;;;;;223.73;91.73;;;;;;;;;;4437812;32;20424;-83
2021/01/01 04:53:06;;;;;;;219.13;89.13;;;;;;;;;;4437891;32;20159;-83
2021/01/01 04:55:31;;;;;;;201.30;83.17;;;;;;;;;;4423262;32;20196;-83
2021/01/01 04:57:57;;;;;;;208.23;88.63;;;;;;;;;;4423354;32;20491;-83
2021/01/01 05:00:25;;;;;;;195.27;82.07;;;;;;;;;;4437750;32;20178;-83
2021/01/01 05:02:50;;;;;;;203.47;83.20;;;;;;;;;;4423468;32;20224;-83
2021/01/01 05:05:15;;;;;;;174.93;74.93;;;;;;;;;;4437121;32;20173;-83
2021/01/01 05:07:41;;;;;;;177.03;72.13;;;;;;;;;;4423318;32;20197;-83
2021/01/01 05:10:06;;;;;;;149.47;62.13;;;;;;;;;;4422730;32;20215;-83
2021/01/01 05:12:32;;;;;;;127.40;54.77;;;;;;;;;;4437064;32;20167;-83
2021/01/01 05:14:58;;;;;;;155.13;63.77;;;;;;;;;;4436934;32;20161;-83
2021/01/01 05:17:33;;;;;;;154.10;65.23;;;;;;;;;;4422711;32;20153;-83
2021/01/01 05:20:08;;;;;;;174.27;69.93;;;;;;;;;;4436706;32;20186;-83
2021/01/01 05:22:34;;;;;;;167.10;68.13;;;;;;;;;;4422688;32;20634;-83
2021/01/01 05:25:16;;;;;;;157.27;62.17;;;;;;;;;;4422718;32;20161;-83
2021/01/01 05:27:45;;;;;;;126.33;51.70;;;;;;;;;;4422907;32;20227;-83
2021/01/01 05:30:15;;;;;;;155.83;60.37;;;;;;;;;;4423414;32;20249;-83
2021/01/01 05:32:52;;;;;;;116.47;50.13;;;;;;;;;;4423107;32;20652;-83
2021/01/01 05:35:28;;;;;;;176.60;68.13;;;;;;;;;;4423315;32;20164;-83
2021/01/01 05:37:53;;;;;;;139.03;57.20;;;;;;;;;;4422914;32;20161;-83
2021/01/01 05:40:27;;;;;;;136.07;58.57;;;;;;;;;;4422251;32;20318;-83
2021/01/01 05:42:52;;;;;;;144.63;58.50;;;;;;;;;;4437334;32;20569;-83
2021/01/01 05:45:18;;;;;;;125.97;52.50;;;;;;;;;;4422776;32;20169;-83
2021/01/01 05:48:03;;;;;;;126.80;51.87;;;;;;;;;;4436312;32;20622;-82
2021/01/01 05:50:32;;;;;;;118.77;48.83;;;;;;;;;;4422725;32;20156;-83
2021/01/01 05:53:10;;;;;;;110.23;46.30;;;;;;;;;;4422534;32;20157;-83
2021/01/01 05:55:35;;;;;;;102.70;44.23;;;;;;;;;;4422289;32;20202;-83
2021/01/01 05:58:00;;;;;;;108.40;42.60;;;;;;;;;;4436385;32;20205;-82
2021/01/01 06:00:26;;;;;;;94.10;41.93;;;;;;;;;;4437169;32;20199;-83
2021/01/01 06:02:59;;;;;;;92.27;39.37;;;;;;;;;;4422520;32;20200;-83
2021/01/01 06:05:27;;;;;;;94.07;39.43;;;;;;;;;;4436560;32;20152;-83
2021/01/01 06:07:55;;;;;;;86.23;36.43;;;;;;;;;;4421992;32;20158;-83
2021/01/01 06:10:21;;;;;;;82.07;36.87;;;;;;;;;;4422058;32;20227;-83
2021/01/01 06:12:50;;;;;;;75.20;36.30;;;;;;;;;;4436016;32;20183;-83
2021/01/01 06:15:20;;;;;;;73.87;33.60;;;;;;;;;;4422115;32;20158;-82
2021/01/01 06:17:49;;;;;;;71.37;30.30;;;;;;;;;;4422083;32;20210;-82
2021/01/01 06:20:21;;;;;;;68.23;30.07;;;;;;;;;;4421962;32;20240;-83
2021/01/01 06:22:59;;;;;;;57.00;25.43;;;;;;;;;;4421742;32;20187;-83
2021/01/01 06:25:25;;;;;;;56.03;25.40;;;;;;;;;;4436035;32;20514;-83
2021/01/01 06:27:51;;;;;;;58.77;27.23;;;;;;;;;;4421713;32;20188;-83
2021/01/01 06:30:17;;;;;;;54.57;23.70;;;;;;;;;;4421977;32;20156;-83
2021/01/01 06:32:43;;;;;;;52.87;24.50;;;;;;;;;;4421804;32;20209;-83
2021/01/01 06:35:12;;;;;;;51.87;25.47;;;;;;;;;;4422344;32;20154;-83
2021/01/01 06:37:41;;;;;;;46.60;23.03;;;;;;;;;;4421632;32;20250;-83
2021/01/01 06:40:24;;;;;;;43.53;20.47;;;;;;;;;;4435536;32;20145;-84
2021/01/01 06:42:54;;;;;;;42.97;19.67;;;;;;;;;;4421647;32;20157;-83
2021/01/01 06:45:40;;;;;;;40.33;18.77;;;;;;;;;;4435898;32;20172;-83
2021/01/01 06:48:07;;;;;;;39.93;17.60;;;;;;;;;;4436557;32;20269;-83
2021/01/01 06:50:33;;;;;;;34.57;17.17;;;;;;;;;;4435519;32;20251;-83
2021/01/01 06:53:06;;;;;;;38.87;18.40;;;;;;;;;;4422306;32;20153;-83
2021/01/01 06:55:32;;;;;;;31.57;16.43;;;;;;;;;;4422009;32;20634;-83
2021/01/01 06:57:58;;;;;;;27.33;14.20;;;;;;;;;;4421949;32;20150;-82
2021/01/01 07:00:41;;;;;;;33.23;15.20;;;;;;;;;;4435716;32;20148;-83
2021/01/01 07:03:27;;;;;;;28.70;14.60;;;;;;;;;;4421499;32;20178;-83
2021/01/01 07:05:57;;;;;;;28.70;14.17;;;;;;;;;;4422168;32;20157;-83
2021/01/01 07:08:41;;;;;;;30.80;15.30;;;;;;;;;;4435881;32;20151;-83
2021/01/01 07:11:09;;;;;;;26.10;14.17;;;;;;;;;;4435719;32;20168;-83
2021/01/01 07:13:53;;;;;;;27.00;13.57;;;;;;;;;;4421157;32;20612;-83
2021/01/01 07:16:19;;;;;;;31.80;15.20;;;;;;;;;;4421265;32;20214;-83
2021/01/01 07:18:44;;;;;;;31.87;15.40;;;;;;;;;;4435612;32;20299;-84
2021/01/01 07:21:10;;;;;;;31.67;15.67;;;;;;;;;;4421373;32;20149;-83
2021/01/01 07:23:38;;;;;;;29.53;15.67;;;;;;;;;;4435758;32;20454;-82
2021/01/01 07:26:04;;;;;;;27.03;14.37;;;;;;;;;;4436349;32;20126;-83
2021/01/01 07:28:30;;;;;;;21.87;12.17;;;;;;;;;;4421599;32;20179;-83
2021/01/01 07:30:55;;;;;;;24.70;12.10;;;;;;;;;;4421264;32;20161;-83
2021/01/01 07:33:21;;;;;;;25.07;12.73;;;;;;;;;;4435542;32;20187;-83
2021/01/01 07:35:53;;;;;;;23.57;12.13;;;;;;;;;;4438314;32;20156;-83
2021/01/01 07:38:19;;;;;;;24.47;11.30;;;;;;;;;;4424202;32;20158;-83
2021/01/01 07:40:45;;;;;;;16.13;8.87;;;;;;;;;;4438471;32;20122;-83
2021/01/01 07:43:10;;;;;;;17.17;9.37;;;;;;;;;;4424682;32;20176;-83
2021/01/01 07:45:35;;;;;;;16.40;9.27;;;;;;;;;;4438378;32;20198;-83
2021/01/01 07:48:03;;;;;;;17.67;9.30;;;;;;;;;;4438777;32;20165;-83
2021/01/01 07:50:30;;;;;;;17.40;9.50;;;;;;;;;;4424099;32;20161;-83
2021/01/01 07:53:04;;;;;;;18.13;9.03;;;;;;;;;;4423571;32;20184;-83
2021/01/01 07:55:30;;;;;;;17.30;9.50;;;;;;;;;;4424331;32;20162;-83
2021/01/01 07:58:04;;;;;;;17.40;8.80;;;;;;;;;;4437884;32;20172;-83
2021/01/01 08:00:34;;;;;;;17.37;9.33;;;;;;;;;;4424500;32;20153;-83
2021/01/01 08:03:03;;;;;;;22.20;10.83;;;;;;;;;;4424357;32;20153;-83
2021/01/01 08:05:28;;;;;;;20.70;12.50;;;;;;;;;;4424084;32;20181;-83
2021/01/01 08:07:54;;;;;;;25.63;14.67;;;;;;;;;;4437745;32;20138;-83
2021/01/01 08:10:34;;;;;;;37.80;22.63;;;;;;;;;;4423963;32;20156;-83
2021/01/01 08:12:59;;;;;;;16.60;9.80;;;;;;;;;;4424689;32;20153;-83
2021/01/01 08:15:26;;;;;;;24.97;14.07;;;;;;;;;;4437905;32;20217;-83
2021/01/01 08:17:56;;;;;;;15.90;8.83;;;;;;;;;;4424090;32;20197;-82
2021/01/01 08:20:22;;;;;;;16.47;8.83;;;;;;;;;;4438184;32;20205;-82
2021/01/01 08:22:51;;;;;;;17.17;8.23;;;;;;;;;;4423604;32;20149;-83
2021/01/01 08:25:17;;;;;;;13.90;8.27;;;;;;;;;;4437998;32;20129;-83
2021/01/01 08:27:44;;;;;;;13.07;7.97;;;;;;;;;;4438164;32;20492;-83
2021/01/01 08:30:10;;;;;;;17.27;8.87;;;;;;;;;;4423488;32;20164;-83
2021/01/01 08:32:36;;;;;;;18.43;8.50;;;;;;;;;;4423928;32;20454;-83
2021/01/01 08:35:04;;;;;;;13.90;7.60;;;;;;;;;;4423454;32;20185;-83
2021/01/01 08:37:32;;;;;;;14.90;7.73;;;;;;;;;;4423463;32;20195;-84
2021/01/01 08:40:01;;;;;;;15.10;7.33;;;;;;;;;;4437258;32;20223;-83
2021/01/01 08:42:31;;;;;;;14.90;8.70;;;;;;;;;;4437383;32;20129;-83
2021/01/01 08:44:57;;;;;;;15.60;7.90;;;;;;;;;;4423619;32;20150;-83
2021/01/01 08:47:35;;;;;;;14.73;7.70;;;;;;;;;;4437946;32;20607;-84
2021/01/01 08:50:00;;;;;;;16.87;8.60;;;;;;;;;;4424633;32;20184;-83
2021/01/01 08:52:27;;;;;;;13.37;8.47;;;;;;;;;;4437410;32;20467;-84
2021/01/01 08:54:52;;;;;;;15.57;8.07;;;;;;;;;;4437592;32;20130;-83
2021/01/01 08:57:29;;;;;;;14.57;7.30;;;;;;;;;;4423200;32;20501;-84
2021/01/01 08:59:58;;;;;;;12.10;7.53;;;;;;;;;;4423295;32;20508;-83
2021/01/01 09:02:25;;;;;;;13.70;8.23;;;;;;;;;;4437183;32;20194;-84
2021/01/01 09:04:52;;;;;;;15.83;8.43;;;;;;;;;;4436881;32;20575;-83
2021/01/01 09:07:17;;;;;;;15.83;8.80;;;;;;;;;;4423326;32;20178;-83
2021/01/01 09:09:43;;;;;;;15.13;8.50;;;;;;;;;;4423029;32;20157;-84
2021/01/01 09:12:12;;;;;;;13.10;7.70;;;;;;;;;;4437195;32;20125;-83
2021/01/01 09:14:44;;;;;;;16.20;9.80;;;;;;;;;;4423016;32;20603;-83
2021/01/01 09:17:09;;;;;;;14.10;8.07;;;;;;;;;;4422602;32;20256;-83
2021/01/01 09:19:35;;;;;;;17.43;8.70;;;;;;;;;;4422783;32;20154;-83
2021/01/01 09:22:13;;;;;;;18.37;8.97;;;;;;;;;;4422778;32;20206;-83
2021/01/01 09:24:40;;;;;;;15.10;8.23;;;;;;;;;;4422866;32;20150;-83
2021/01/01 09:27:06;;;;;;;12.50;8.40;;;;;;;;;;4422456;32;20150;-83
2021/01/01 09:29:31;;;;;;;14.47;8.10;;;;;;;;;;4422890;32;20211;-83
2021/01/01 09:32:02;;;;;;;15.80;8.73;;;;;;;;;;4437635;32;20163;-83
2021/01/01 09:34:29;;;;;;;12.83;8.47;;;;;;;;;;4422516;32;20172;-84
2021/01/01 09:36:57;;;;;;;14.47;8.13;;;;;;;;;;4422761;32;20473;-83
2021/01/01 09:39:25;;;;;;;14.97;7.67;;;;;;;;;;4422374;32;20209;-83
2021/01/01 09:41:53;;;;;;;12.03;7.50;;;;;;;;;;4422542;32;20149;-82
2021/01/01 09:44:27;;;;;;;12.83;7.13;;;;;;;;;;4422895;32;20551;-83
2021/01/01 09:49:57;;;;;;;13.20;7.40;;;;;;;;;;4425406;32;20508;-83
2021/01/01 09:52:25;;;;;;;15.13;6.67;;;;;;;;;;4422560;32;20149;-83
2021/01/01 09:54:55;;;;;;;12.80;6.93;;;;;;;;;;4422297;32;20575;-84
2021/01/01 09:57:24;;;;;;;14.27;6.90;;;;;;;;;;4421598;32;20184;-83
2021/01/01 09:59:52;;;;;;;13.00;7.43;;;;;;;;;;4422189;32;20184;-83
2021/01/01 10:05:37;;;;;;;10.87;6.53;;;;;;;;;;4328954;33;20593;-83
2021/01/01 10:08:02;;;;;;;14.00;8.17;;;;;;;;;;4330440;33;20167;-84
2021/01/01 10:10:33;;;;;;;13.07;7.40;;;;;;;;;;4424688;32;20183;-84
2021/01/01 10:13:07;;;;;;;10.00;6.73;;;;;;;;;;4422948;32;20197;-84
2021/01/01 10:15:35;;;;;;;14.90;7.53;;;;;;;;;;4422166;32;20253;-84
2021/01/01 10:18:03;;;;;;;13.33;6.87;;;;;;;;;;4421957;32;20165;-84
2021/01/01 10:20:53;;;;;;;12.80;7.77;;;;;;;;;;4421491;32;20153;-84
2021/01/01 10:23:19;;;;;;;13.47;7.47;;;;;;;;;;4412971;32;20224;-84
2021/01/01 10:25:46;;;;;;;13.80;7.40;;;;;;;;;;4421882;32;20153;-84
2021/01/01 10:28:24;;;;;;;;;;;;;;;;;;;;;
2021/01/01 10:30:59;;;;;;;14.63;8.50;;;;;;;;;;4436346;32;20179;-85
2021/01/01 10:33:54;;;;;;;11.60;7.47;;;;;;;;;;4421981;32;20180;-84
2021/01/01 10:36:38;;;;;;;16.43;8.20;;;;;;;;;;4436546;32;20151;-85
2021/01/01 10:39:22;;;;;;;19.63;8.23;;;;;;;;;;4420424;32;20176;-85
2021/01/01 10:45:15;;;;;;;17.93;8.60;;;;;;;;;;4358274;32;20182;-84
2021/01/01 10:47:49;;;;;;;15.33;8.33;;;;;;;;;;4421905;32;20213;-85
2021/01/01 10:50:25;;;;;;;15.03;7.97;;;;;;;;;;4421701;32;20489;-84
2021/01/01 10:52:59;;;;;;;16.40;8.60;;;;;;;;;;4421695;32;20149;-84
2021/01/01 10:55:33;;;;;;;14.80;8.27;;;;;;;;;;4421922;32;20145;-85
2021/01/01 10:57:59;;;;;;;14.83;8.70;;;;;;;;;;4422651;32;20178;-84
2021/01/01 11:00:34;;;;;;;13.50;7.57;;;;;;;;;;4421695;32;20177;-85
2021/01/01 11:03:29;;;;;;;15.13;8.40;;;;;;;;;;4421899;32;20578;-84
2021/01/01 11:05:58;;;;;;;16.83;8.73;;;;;;;;;;4405288;32;20191;-83
2021/01/01 11:08:34;;;;;;;16.77;9.23;;;;;;;;;;4395659;32;20158;-84
2021/01/01 11:11:13;;;;;;;13.90;8.13;;;;;;;;;;4408659;32;20200;-84
2021/01/01 11:13:53;;;;;;;15.63;9.03;;;;;;;;;;4409366;32;20157;-84
2021/01/01 12:23:42;;;;;;;21.10;10.30;;;;;;;;;;4420929;32;20238;-84
2021/01/01 12:26:10;;;;;;;17.63;9.50;;;;;;;;;;4408865;32;20141;-83
2021/01/01 12:28:36;;;;;;;13.90;8.17;;;;;;;;;;4408096;32;20188;-83
2021/01/01 12:31:04;;;;;;;17.77;8.00;;;;;;;;;;4408275;32;20193;-83
2021/01/01 12:33:29;;;;;;;9.50;4.90;;;;;;;;;;4408242;32;20184;-82
2021/01/01 12:35:55;;;;;;;10.07;4.47;;;;;;;;;;4408521;32;20467;-84
2021/01/01 12:38:23;;;;;;;8.93;4.67;;;;;;;;;;4408403;32;20188;-84
2021/01/01 12:41:00;;;;;;;9.70;5.13;;;;;;;;;;4408054;32;20177;-84
2021/01/01 12:43:25;;;;;;;6.60;3.80;;;;;;;;;;4408455;32;20223;-84
2021/01/01 12:45:50;;;;;;;7.73;3.53;;;;;;;;;;4407882;32;20653;-85
2021/01/01 12:48:34;;;;;;;6.47;3.50;;;;;;;;;;4407971;32;20157;-84
2021/01/01 12:51:04;;;;;;;8.50;3.50;;;;;;;;;;4407591;32;20468;-85
2021/01/01 12:53:36;;;;;;;4.40;2.63;;;;;;;;;;4407958;32;20571;-85
2021/01/01 12:56:04;;;;;;;2.77;2.20;;;;;;;;;;4407840;32;20180;-84
2021/01/01 12:58:35;;;;;;;4.20;2.17;;;;;;;;;;4407788;32;20150;-83
2021/01/01 13:01:03;;;;;;;3.97;2.47;;;;;;;;;;4408725;32;20149;-85
2021/01/01 13:03:31;;;;;;;5.00;2.60;;;;;;;;;;4407742;32;20154;-85
2021/01/01 13:06:02;;;;;;;5.27;3.10;;;;;;;;;;4408203;32;20158;-86
2021/01/01 13:08:30;;;;;;;6.10;3.37;;;;;;;;;;4421340;32;20146;-86
2021/01/01 13:10:58;;;;;;;6.37;2.63;;;;;;;;;;4408129;32;20157;-85
2021/01/01 13:13:31;;;;;;;6.30;3.10;;;;;;;;;;4407583;32;20153;-85
2021/01/01 13:15:56;;;;;;;4.37;2.67;;;;;;;;;;4408030;32;20199;-85
2021/01/01 13:18:22;;;;;;;3.97;2.70;;;;;;;;;;4414546;32;20523;-86
2021/01/01 13:20:49;;;;;;;6.13;3.00;;;;;;;;;;4421803;32;20214;-85
2021/01/01 13:23:29;;;;;;;5.97;3.10;;;;;;;;;;4422939;32;20161;-85
2021/01/01 13:25:59;;;;;;;6.47;3.00;;;;;;;;;;4422989;32;20156;-85
2021/01/01 13:28:35;;;;;;;6.40;3.03;;;;;;;;;;4422793;32;20195;-86
2021/01/01 13:31:10;;;;;;;6.03;2.67;;;;;;;;;;4422388;32;20174;-85
2021/01/01 13:33:37;;;;;;;5.10;2.90;;;;;;;;;;4421952;32;20164;-84
2021/01/01 13:36:03;;;;;;;6.37;3.30;;;;;;;;;;4422111;32;20156;-86
2021/01/01 13:38:28;;;;;;;6.77;3.33;;;;;;;;;;4422238;32;20165;-86
2021/01/01 13:40:57;;;;;;;5.17;3.23;;;;;;;;;;4422106;32;20175;-84
2021/01/01 13:43:24;;;;;;;5.67;3.23;;;;;;;;;;4422852;32;20666;-85
2021/01/01 13:45:49;;;;;;;6.20;3.03;;;;;;;;;;4422171;32;20214;-86
2021/01/01 13:48:15;;;;;;;7.80;3.53;;;;;;;;;;4422455;32;20162;-86
2021/01/01 13:50:47;;;;;;;9.00;3.57;;;;;;;;;;4422479;32;20173;-85
2021/01/01 13:53:14;;;;;;;12.00;4.33;;;;;;;;;;4421787;32;20188;-85
2021/01/01 13:55:40;;;;;;;10.00;4.50;;;;;;;;;;4421849;32;20152;-85
2021/01/01 13:58:08;;;;;;;10.37;4.43;;;;;;;;;;4422689;32;20176;-85
2021/01/01 14:00:34;;;;;;;9.33;4.90;;;;;;;;;;4421957;32;20180;-85
2021/01/01 14:03:02;;;;;;;11.93;5.13;;;;;;;;;;4421901;32;20510;-85
2021/01/01 14:05:30;;;;;;;8.67;4.43;;;;;;;;;;4421806;32;20149;-85
2021/01/01 14:07:56;;;;;;;10.85;4.78;;;;;;;;;;4422159;32;20184;-86
2021/01/01 14:10:22;;;;;;;9.77;4.75;;;;;;;;;;4435959;32;20165;-86
2021/01/01 14:12:47;;;;;;;9.20;4.47;;;;;;;;;;4421802;32;20153;-86
2021/01/01 14:15:19;;;;;;;9.88;4.43;;;;;;;;;;4421563;32;20248;-86
2021/01/01 14:17:54;;;;;;;8.57;4.78;;;;;;;;;;4421988;32;20196;-85
2021/01/01 14:20:20;;;;;;;11.48;4.40;;;;;;;;;;4421870;32;20156;-86
2021/01/01 14:22:48;;;;;;;9.48;4.22;;;;;;;;;;4421810;32;20481;-85
2021/01/01 14:25:15;;;;;;;7.70;4.30;;;;;;;;;;4435632;32;20186;-85
2021/01/01 14:27:42;;;;;;;7.17;4.10;;;;;;;;;;4421651;32;20161;-85
2021/01/01 14:30:08;;;;;;;5.93;3.60;;;;;;;;;;4421673;32;20595;-85
2021/01/01 14:32:36;;;;;;;5.73;3.20;;;;;;;;;;4421797;32;20153;-85
2021/01/01 14:35:14;;;;;;;;;;;;;;;;;;;;;
2021/01/01 14:37:46;;;;;;;8.95;3.97;;;;;;;;;;4436789;32;20149;-84
2021/01/01 14:40:12;;;;;;;5.27;3.17;;;;;;;;;;4421579;32;20223;-85
2021/01/01 14:42:49;;;;;;;5.47;3.30;;;;;;;;;;4421375;32;20551;-84
2021/01/01 14:45:18;;;;;;;6.72;3.03;;;;;;;;;;4421218;32;20581;-84
2021/01/01 14:47:46;;;;;;;6.07;3.77;;;;;;;;;;4422235;32;20584;-84
2021/01/01 14:50:20;;;;;;;6.90;4.07;;;;;;;;;;4421727;32;20204;-84
2021/01/01 14:52:46;;;;;;;6.45;4.00;;;;;;;;;;4421996;32;20149;-84
2021/01/01 14:55:21;;;;;;;6.23;3.40;;;;;;;;;;4421801;32;20192;-84
2021/01/01 14:57:49;;;;;;;7.10;3.60;;;;;;;;;;4421880;32;20148;-85
2021/01/01 15:00:25;;;;;;;7.77;4.80;;;;;;;;;;4421378;32;20168;-85
2021/01/01 15:02:50;;;;;;;7.97;4.27;;;;;;;;;;4421735;32;20228;-85
2021/01/01 15:05:20;;;;;;;9.00;4.53;;;;;;;;;;4421571;32;20160;-85
2021/01/01 15:07:48;;;;;;;7.60;4.20;;;;;;;;;;4421489;32;20157;-85
2021/01/01 15:10:16;;;;;;;14.83;5.07;;;;;;;;;;4421712;32;20213;-84
2021/01/01 15:12:56;;;;;;;10.13;4.93;;;;;;;;;;4421664;32;20269;-84
2021/01/01 15:18:57;;;;;;;10.47;5.03;;;;;;;;;;4396983;32;20226;-85
2021/01/01 15:21:31;;;;;;;9.27;5.47;;;;;;;;;;4435181;32;20188;-87
2021/01/01 15:23:59;;;;;;;8.40;5.07;;;;;;;;;;4422257;32;20440;-86
2021/01/01 15:26:27;;;;;;;9.50;5.57;;;;;;;;;;4422670;32;20176;-86
2021/01/01 15:28:58;;;;;;;9.23;5.30;;;;;;;;;;4435566;32;20177;-87
2021/01/01 15:31:28;;;;;;;10.43;5.10;;;;;;;;;;4436259;32;20164;-86
2021/01/01 15:34:07;;;;;;;9.03;5.10;;;;;;;;;;4421894;32;20180;-86
2021/01/01 15:36:43;;;;;;;8.80;5.43;;;;;;;;;;4421913;32;21017;-87
2021/01/01 15:39:11;;;;;;;11.07;5.63;;;;;;;;;;4435582;32;20160;-84
2021/01/01 15:41:42;;;;;;;12.33;6.47;;;;;;;;;;4436122;32;20137;-85
2021/01/01 15:44:10;;;;;;;11.47;6.00;;;;;;;;;;4421204;32;20583;-85
2021/01/01 15:46:39;;;;;;;9.73;6.27;;;;;;;;;;4421724;32;20157;-85
2021/01/01 15:49:04;;;;;;;13.70;6.57;;;;;;;;;;4421157;32;20161;-85
2021/01/01 15:51:30;;;;;;;13.23;6.23;;;;;;;;;;4421428;32;20574;-84